メインページ
METAR-TAF:

METAR-TAF

空港 :

カラカス, ベネズエラ

シモン・ボリバル国際空港

緯度: 10-36N, 経度: 066-59W, 海抜: 43m

現時点の気象観測

当レポートは32分前の15:00(UTC)に作成
北/北東の風 3kt
気温 31°C
湿度 52%
気圧 1014 hPa
視程10km以上
高度1600ftの雲は散在している

METAR: SVMI 251500Z 02003KT 9999 SCT016 31/20 Q1014

時間: 11:32 (15:32 UTC)

予報

当レポートは5時間32分前の10:00(UTC)に作成
予報は25日の 12時(UTC)から 26日の 12時(UTC)まで有効
の風 kt
視程10km以上
高度1600ftの雲はほとんどない
高度10000ftの雲は散在している
25日の 1430時(UTC)から
変向風 12kt
視程10km以上
高度1600ftの雲はほとんどない
25日の 19時(UTC)から 25日の 22時(UTC)まで徐々に
高度1600ftの雲は散在している

TAF: SVMI 251000Z 2512/2612 00000KT 9999 FEW016 SCT100 TX33/18Z TN25/08Z FM251430 VRB12KT 9999 FEW016 BECMG 2519/2522 SCT016

4,000以上の空港の気象観測と天気予報(METAR報とTAF報)

利用可能な観測所は地図上に黄色い丸と赤い丸で示す。

丸の上にカーソルを重ねると観測所名を参照できる。

次にクリックすると気象観測と天気予報を参照できる。

マップの切り替え:黒色「×」印の緑ボタンをクリックして拡大、「-」印の緑ボタンをクリックして縮小、緑色の三角印をクリックして隣りの地図に切り替え


METAR-TAF: